Ust'- Kulom, Russia
Current Conditions -  °F | °C
As of 2:00 PM on Monday 22 Dec 2014 (Local Time) from UUYY Reporting Station
Snow Showers Snow Showers  
Wind Chill: 25°   Ceiling: 1300
Heat Index: 30°   Visibility: 4mi
Dew Point: 27°   Wind: 4mph
Humidity: 86%   Direction: NA
Pressure: 29.35"   Gusts: NA
Location:  61.69°N, 53.69°E
Report Text: UUYY 221100Z VRB02MPS 6000 -SHSN BKN013CB OVC066 M01/M03 Q0994 TEMPO 0500 +SHSN 1942//35 RMK QFE737/0983
Loading
Personal Weather Stations






























Interactive Weather Map New forecast layout! Learn more

10-Day Weather Forecast

Advertisements
Track Severe Weather on mobile